Ash Fork, Arizona
Current Conditions -  °F | °C
As of 4:53 AM on Saturday 25 Oct 2014 (Local Time) from KPRC Reporting Station
Clear Clear  
Wind Chill: 51°   Ceiling: Unl
Heat Index: 51°   Visibility: 10mi
Dew Point: 39°   Wind: 9mph
Humidity: 63%   Direction: 200°SSW
Pressure: 30.24"   Gusts: NA
Location:  35.23°N, 112.49°W
Report Text: KPRC 251153Z AUTO 20008KT 10SM CLR 11/04 A3024 RMK AO2 SLP174 T01060039 10133 20100 56004 TSNO
Loading
Personal Weather Stations






























Interactive Weather Map
Tropical Storm Tracking
New forecast layout! Learn more

10-Day Weather Forecast

Advertisements
Track Severe Weather on mobile